sensor_id;sensor_type;location;lat;lon;timestamp;pressure;altitude;pressure_sealevel;temperature
65823;BMP180;52585;47.566;19.056;2023-03-11T00:00:39;98215.80;;;11.00
65823;BMP180;52585;47.566;19.056;2023-03-11T00:03:07;98211.80;;;10.94
65823;BMP180;52585;47.566;19.056;2023-03-11T00:05:37;98209.60;;;10.90
65823;BMP180;52585;47.566;19.056;2023-03-11T00:08:04;98210.40;;;10.90
65823;BMP180;52585;47.566;19.056;2023-03-11T00:10:38;98206.40;;;10.80
65823;BMP180;52585;47.566;19.056;2023-03-11T00:13:06;98210.20;;;10.80
65823;BMP180;52585;47.566;19.056;2023-03-11T00:15:33;98200.80;;;10.80
65823;BMP180;52585;47.566;19.056;2023-03-11T00:17:59;98196.00;;;10.72
65823;BMP180;52585;47.566;19.056;2023-03-11T00:20:32;98196.20;;;10.70
65823;BMP180;52585;47.566;19.056;2023-03-11T00:22:59;98196.20;;;10.70
65823;BMP180;52585;47.566;19.056;2023-03-11T00:25:28;98190.20;;;10.70
65823;BMP180;52585;47.566;19.056;2023-03-11T00:27:55;98182.80;;;10.70
65823;BMP180;52585;47.566;19.056;2023-03-11T00:30:22;98191.20;;;10.62
65823;BMP180;52585;47.566;19.056;2023-03-11T00:32:51;98187.80;;;10.60
65823;BMP180;52585;47.566;19.056;2023-03-11T00:35:27;98193.80;;;10.60
65823;BMP180;52585;47.566;19.056;2023-03-11T00:37:57;98195.20;;;10.60
65823;BMP180;52585;47.566;19.056;2023-03-11T00:40:27;98195.80;;;10.66
65823;BMP180;52585;47.566;19.056;2023-03-11T00:42:53;98194.80;;;10.64
65823;BMP180;52585;47.566;19.056;2023-03-11T00:45:19;98189.60;;;10.68
65823;BMP180;52585;47.566;19.056;2023-03-11T00:47:45;98192.00;;;10.68
65823;BMP180;52585;47.566;19.056;2023-03-11T00:50:22;98199.00;;;10.64
65823;BMP180;52585;47.566;19.056;2023-03-11T00:52:50;98203.40;;;10.62
65823;BMP180;52585;47.566;19.056;2023-03-11T00:55:21;98194.20;;;10.60
65823;BMP180;52585;47.566;19.056;2023-03-11T00:57:52;98198.60;;;10.60
65823;BMP180;52585;47.566;19.056;2023-03-11T01:00:20;98198.00;;;10.60
65823;BMP180;52585;47.566;19.056;2023-03-11T01:02:46;98198.00;;;10.60
65823;BMP180;52585;47.566;19.056;2023-03-11T01:05:13;98204.40;;;10.60
65823;BMP180;52585;47.566;19.056;2023-03-11T01:07:40;98204.40;;;10.60
65823;BMP180;52585;47.566;19.056;2023-03-11T01:10:08;98199.00;;;10.58
65823;BMP180;52585;47.566;19.056;2023-03-11T01:12:34;98195.80;;;10.52
65823;BMP180;52585;47.566;19.056;2023-03-11T01:14:59;98185.00;;;10.50
65823;BMP180;52585;47.566;19.056;2023-03-11T01:17:25;98182.60;;;10.50
65823;BMP180;52585;47.566;19.056;2023-03-11T01:19:50;98185.40;;;10.50
65823;BMP180;52585;47.566;19.056;2023-03-11T01:22:17;98183.80;;;10.50
65823;BMP180;52585;47.566;19.056;2023-03-11T01:24:46;98173.40;;;10.50
65823;BMP180;52585;47.566;19.056;2023-03-11T01:27:11;98175.00;;;10.46
65823;BMP180;52585;47.566;19.056;2023-03-11T01:29:37;98174.00;;;10.46
65823;BMP180;52585;47.566;19.056;2023-03-11T01:32:03;98170.80;;;10.40
65823;BMP180;52585;47.566;19.056;2023-03-11T01:34:28;98165.80;;;10.40
65823;BMP180;52585;47.566;19.056;2023-03-11T01:36:54;98173.20;;;10.40
65823;BMP180;52585;47.566;19.056;2023-03-11T01:39:20;98174.00;;;10.40
65823;BMP180;52585;47.566;19.056;2023-03-11T01:41:45;98174.80;;;10.40
65823;BMP180;52585;47.566;19.056;2023-03-11T01:44:12;98175.80;;;10.40
65823;BMP180;52585;47.566;19.056;2023-03-11T01:49:21;98156.60;;;10.38
65823;BMP180;52585;47.566;19.056;2023-03-11T01:51:51;98147.80;;;10.30
65823;BMP180;52585;47.566;19.056;2023-03-11T01:54:39;98154.40;;;10.30
65823;BMP180;52585;47.566;19.056;2023-03-11T01:57:11;98155.40;;;10.30
65823;BMP180;52585;47.566;19.056;2023-03-11T01:59:52;98153.20;;;10.30
65823;BMP180;52585;47.566;19.056;2023-03-11T02:02:34;98165.60;;;10.26
65823;BMP180;52585;47.566;19.056;2023-03-11T02:05:02;98164.60;;;10.20
65823;BMP180;52585;47.566;19.056;2023-03-11T02:07:28;98176.40;;;10.20
65823;BMP180;52585;47.566;19.056;2023-03-11T02:09:54;98185.20;;;10.20
65823;BMP180;52585;47.566;19.056;2023-03-11T02:12:20;98187.20;;;10.20
65823;BMP180;52585;47.566;19.056;2023-03-11T02:14:50;98184.40;;;10.12
65823;BMP180;52585;47.566;19.056;2023-03-11T02:17:16;98186.60;;;10.10
65823;BMP180;52585;47.566;19.056;2023-03-11T02:22:27;98189.20;;;10.10
65823;BMP180;52585;47.566;19.056;2023-03-11T02:25:15;98184.40;;;10.00
65823;BMP180;52585;47.566;19.056;2023-03-11T02:27:46;98189.80;;;10.00
65823;BMP180;52585;47.566;19.056;2023-03-11T02:30:17;98187.80;;;10.00
65823;BMP180;52585;47.566;19.056;2023-03-11T02:32:45;98191.60;;;10.00
65823;BMP180;52585;47.566;19.056;2023-03-11T02:35:14;98188.40;;;10.00
65823;BMP180;52585;47.566;19.056;2023-03-11T02:37:48;98194.00;;;10.00
65823;BMP180;52585;47.566;19.056;2023-03-11T02:42:47;98200.40;;;10.00
65823;BMP180;52585;47.566;19.056;2023-03-11T02:45:17;98191.60;;;10.00
65823;BMP180;52585;47.566;19.056;2023-03-11T02:47:45;98187.00;;;10.00
65823;BMP180;52585;47.566;19.056;2023-03-11T02:50:14;98188.60;;;9.96
65823;BMP180;52585;47.566;19.056;2023-03-11T02:52:40;98189.00;;;9.90
65823;BMP180;52585;47.566;19.056;2023-03-11T02:55:08;98186.20;;;9.90
65823;BMP180;52585;47.566;19.056;2023-03-11T02:57:37;98178.80;;;9.90
65823;BMP180;52585;47.566;19.056;2023-03-11T03:00:04;98186.00;;;9.90
65823;BMP180;52585;47.566;19.056;2023-03-11T03:02:38;98190.40;;;9.90
65823;BMP180;52585;47.566;19.056;2023-03-11T03:05:04;98195.80;;;9.90
65823;BMP180;52585;47.566;19.056;2023-03-11T03:07:30;98196.20;;;9.84
65823;BMP180;52585;47.566;19.056;2023-03-11T03:09:56;98202.60;;;9.80
65823;BMP180;52585;47.566;19.056;2023-03-11T03:12:22;98210.20;;;9.80
65823;BMP180;52585;47.566;19.056;2023-03-11T03:14:47;98219.00;;;9.80
65823;BMP180;52585;47.566;19.056;2023-03-11T03:17:13;98223.60;;;9.80
65823;BMP180;52585;47.566;19.056;2023-03-11T03:19:38;98217.60;;;9.80
65823;BMP180;52585;47.566;19.056;2023-03-11T03:22:04;98216.40;;;9.80
65823;BMP180;52585;47.566;19.056;2023-03-11T03:24:30;98220.60;;;9.74
65823;BMP180;52585;47.566;19.056;2023-03-11T03:26:56;98218.00;;;9.72
65823;BMP180;52585;47.566;19.056;2023-03-11T03:29:22;98220.80;;;9.70
65823;BMP180;52585;47.566;19.056;2023-03-11T03:31:47;98226.00;;;9.70
65823;BMP180;52585;47.566;19.056;2023-03-11T03:34:13;98230.20;;;9.70
65823;BMP180;52585;47.566;19.056;2023-03-11T03:36:38;98227.40;;;9.70
65823;BMP180;52585;47.566;19.056;2023-03-11T03:39:05;98209.40;;;9.70
65823;BMP180;52585;47.566;19.056;2023-03-11T03:41:31;98225.40;;;9.70
65823;BMP180;52585;47.566;19.056;2023-03-11T03:43:57;98221.60;;;9.70
65823;BMP180;52585;47.566;19.056;2023-03-11T03:46:22;98237.40;;;9.70
65823;BMP180;52585;47.566;19.056;2023-03-11T03:48:48;98209.60;;;9.70
65823;BMP180;52585;47.566;19.056;2023-03-11T03:51:14;98230.60;;;9.70
65823;BMP180;52585;47.566;19.056;2023-03-11T03:53:41;98233.00;;;9.62
65823;BMP180;52585;47.566;19.056;2023-03-11T03:56:14;98237.40;;;9.60
65823;BMP180;52585;47.566;19.056;2023-03-11T03:58:40;98227.60;;;9.60
65823;BMP180;52585;47.566;19.056;2023-03-11T04:01:07;98235.20;;;9.60
65823;BMP180;52585;47.566;19.056;2023-03-11T04:03:33;98236.00;;;9.52
65823;BMP180;52585;47.566;19.056;2023-03-11T04:06:21;98235.80;;;9.50
65823;BMP180;52585;47.566;19.056;2023-03-11T04:08:50;98247.00;;;9.50
65823;BMP180;52585;47.566;19.056;2023-03-11T04:11:16;98255.40;;;9.48
65823;BMP180;52585;47.566;19.056;2023-03-11T04:13:42;98261.80;;;9.40
65823;BMP180;52585;47.566;19.056;2023-03-11T04:16:15;98267.40;;;9.40
65823;BMP180;52585;47.566;19.056;2023-03-11T04:18:41;98275.00;;;9.40
65823;BMP180;52585;47.566;19.056;2023-03-11T04:21:07;98281.00;;;9.40
65823;BMP180;52585;47.566;19.056;2023-03-11T04:23:33;98287.60;;;9.30
65823;BMP180;52585;47.566;19.056;2023-03-11T04:26:00;98296.40;;;9.30
65823;BMP180;52585;47.566;19.056;2023-03-11T04:28:26;98306.40;;;9.30
65823;BMP180;52585;47.566;19.056;2023-03-11T04:30:52;98307.40;;;9.26
65823;BMP180;52585;47.566;19.056;2023-03-11T04:33:17;98307.20;;;9.20
65823;BMP180;52585;47.566;19.056;2023-03-11T04:35:43;98307.20;;;9.20
65823;BMP180;52585;47.566;19.056;2023-03-11T04:38:09;98308.40;;;9.20
65823;BMP180;52585;47.566;19.056;2023-03-11T04:40:36;98298.20;;;9.14
65823;BMP180;52585;47.566;19.056;2023-03-11T04:43:02;98294.40;;;9.10
65823;BMP180;52585;47.566;19.056;2023-03-11T04:45:28;98291.00;;;9.10
65823;BMP180;52585;47.566;19.056;2023-03-11T04:47:53;98268.80;;;9.00
65823;BMP180;52585;47.566;19.056;2023-03-11T04:50:19;98285.80;;;9.00
65823;BMP180;52585;47.566;19.056;2023-03-11T04:52:46;98295.60;;;8.90
65823;BMP180;52585;47.566;19.056;2023-03-11T04:55:13;98299.20;;;8.80
65823;BMP180;52585;47.566;19.056;2023-03-11T04:57:40;98300.40;;;8.80
65823;BMP180;52585;47.566;19.056;2023-03-11T05:00:09;98314.20;;;8.70
65823;BMP180;52585;47.566;19.056;2023-03-11T05:02:38;98321.80;;;8.70
65823;BMP180;52585;47.566;19.056;2023-03-11T05:05:09;98325.00;;;8.60
65823;BMP180;52585;47.566;19.056;2023-03-11T05:07:35;98335.40;;;8.60
65823;BMP180;52585;47.566;19.056;2023-03-11T05:10:23;98339.60;;;8.50
65823;BMP180;52585;47.566;19.056;2023-03-11T05:12:50;98342.00;;;8.50
65823;BMP180;52585;47.566;19.056;2023-03-11T05:15:19;98344.40;;;8.50
65823;BMP180;52585;47.566;19.056;2023-03-11T05:17:46;98342.60;;;8.40
65823;BMP180;52585;47.566;19.056;2023-03-11T05:20:12;98334.00;;;8.40
65823;BMP180;52585;47.566;19.056;2023-03-11T05:22:38;98327.60;;;8.34
65823;BMP180;52585;47.566;19.056;2023-03-11T05:25:05;98324.00;;;8.30
65823;BMP180;52585;47.566;19.056;2023-03-11T05:27:31;98327.20;;;8.30
65823;BMP180;52585;47.566;19.056;2023-03-11T05:29:56;98328.20;;;8.26
65823;BMP180;52585;47.566;19.056;2023-03-11T05:32:22;98331.80;;;8.20
65823;BMP180;52585;47.566;19.056;2023-03-11T05:34:48;98342.60;;;8.18
65823;BMP180;52585;47.566;19.056;2023-03-11T05:37:14;98348.60;;;8.10
65823;BMP180;52585;47.566;19.056;2023-03-11T05:39:40;98347.40;;;8.00
65823;BMP180;52585;47.566;19.056;2023-03-11T05:42:07;98354.80;;;8.00
65823;BMP180;52585;47.566;19.056;2023-03-11T05:44:34;98352.00;;;7.90
65823;BMP180;52585;47.566;19.056;2023-03-11T05:46:59;98345.40;;;7.90
65823;BMP180;52585;47.566;19.056;2023-03-11T05:49:25;98338.40;;;7.88
65823;BMP180;52585;47.566;19.056;2023-03-11T05:51:51;98368.80;;;7.80
65823;BMP180;52585;47.566;19.056;2023-03-11T05:54:18;98377.20;;;7.80
65823;BMP180;52585;47.566;19.056;2023-03-11T05:56:45;98392.60;;;7.70
65823;BMP180;52585;47.566;19.056;2023-03-11T05:59:15;98389.60;;;7.70
65823;BMP180;52585;47.566;19.056;2023-03-11T06:01:43;98404.00;;;7.62
65823;BMP180;52585;47.566;19.056;2023-03-11T06:04:09;98402.60;;;7.60
65823;BMP180;52585;47.566;19.056;2023-03-11T06:06:38;98402.60;;;7.60
65823;BMP180;52585;47.566;19.056;2023-03-11T06:09:06;98387.80;;;7.50
65823;BMP180;52585;47.566;19.056;2023-03-11T06:11:32;98400.00;;;7.50
65823;BMP180;52585;47.566;19.056;2023-03-11T06:13:57;98382.00;;;7.44
65823;BMP180;52585;47.566;19.056;2023-03-11T06:16:24;98394.80;;;7.40
65823;BMP180;52585;47.566;19.056;2023-03-11T06:18:51;98393.80;;;7.40
65823;BMP180;52585;47.566;19.056;2023-03-11T06:21:20;98391.60;;;7.40
65823;BMP180;52585;47.566;19.056;2023-03-11T06:23:47;98392.60;;;7.40
65823;BMP180;52585;47.566;19.056;2023-03-11T06:26:16;98407.00;;;7.34
65823;BMP180;52585;47.566;19.056;2023-03-11T06:28:43;98405.40;;;7.30
65823;BMP180;52585;47.566;19.056;2023-03-11T06:31:16;98430.20;;;7.30
65823;BMP180;52585;47.566;19.056;2023-03-11T06:33:44;98435.40;;;7.30
65823;BMP180;52585;47.566;19.056;2023-03-11T06:36:13;98470.40;;;7.30
65823;BMP180;52585;47.566;19.056;2023-03-11T06:38:39;98470.20;;;7.30
65823;BMP180;52585;47.566;19.056;2023-03-11T06:41:06;98473.40;;;7.30
65823;BMP180;52585;47.566;19.056;2023-03-11T06:43:33;98480.20;;;7.24
65823;BMP180;52585;47.566;19.056;2023-03-11T06:46:01;98485.20;;;7.20
65823;BMP180;52585;47.566;19.056;2023-03-11T06:48:32;98475.40;;;7.20
65823;BMP180;52585;47.566;19.056;2023-03-11T06:50:59;98482.60;;;7.20
65823;BMP180;52585;47.566;19.056;2023-03-11T06:53:27;98500.00;;;7.20
65823;BMP180;52585;47.566;19.056;2023-03-11T06:56:06;98498.20;;;7.20
65823;BMP180;52585;47.566;19.056;2023-03-11T06:58:34;98499.00;;;7.20
65823;BMP180;52585;47.566;19.056;2023-03-11T07:01:07;98489.60;;;7.10
65823;BMP180;52585;47.566;19.056;2023-03-11T07:03:33;98510.40;;;7.10
65823;BMP180;52585;47.566;19.056;2023-03-11T07:05:59;98491.60;;;7.10
65823;BMP180;52585;47.566;19.056;2023-03-11T07:08:26;98499.00;;;7.10
65823;BMP180;52585;47.566;19.056;2023-03-11T07:11:05;98502.40;;;7.10
65823;BMP180;52585;47.566;19.056;2023-03-11T07:13:32;98489.20;;;7.10
65823;BMP180;52585;47.566;19.056;2023-03-11T07:16:17;98497.40;;;7.10
65823;BMP180;52585;47.566;19.056;2023-03-11T07:18:44;98498.40;;;7.10
65823;BMP180;52585;47.566;19.056;2023-03-11T07:21:14;98509.80;;;7.10
65823;BMP180;52585;47.566;19.056;2023-03-11T07:23:41;98511.40;;;7.10
65823;BMP180;52585;47.566;19.056;2023-03-11T07:26:10;98499.60;;;7.10
65823;BMP180;52585;47.566;19.056;2023-03-11T07:28:36;98501.00;;;7.10
65823;BMP180;52585;47.566;19.056;2023-03-11T07:31:15;98512.60;;;7.10
65823;BMP180;52585;47.566;19.056;2023-03-11T07:33:41;98509.00;;;7.00
65823;BMP180;52585;47.566;19.056;2023-03-11T07:36:11;98509.00;;;7.10
65823;BMP180;52585;47.566;19.056;2023-03-11T07:38:37;98522.80;;;7.08
65823;BMP180;52585;47.566;19.056;2023-03-11T07:41:04;98514.60;;;7.08
65823;BMP180;52585;47.566;19.056;2023-03-11T07:43:31;98520.60;;;7.10
65823;BMP180;52585;47.566;19.056;2023-03-11T07:46:07;98525.40;;;7.10
65823;BMP180;52585;47.566;19.056;2023-03-11T07:48:36;98537.80;;;7.20
65823;BMP180;52585;47.566;19.056;2023-03-11T07:51:16;98525.40;;;7.20
65823;BMP180;52585;47.566;19.056;2023-03-11T07:53:42;98535.60;;;7.20
65823;BMP180;52585;47.566;19.056;2023-03-11T07:56:11;98523.20;;;7.20
65823;BMP180;52585;47.566;19.056;2023-03-11T07:58:38;98535.40;;;7.20
65823;BMP180;52585;47.566;19.056;2023-03-11T08:01:23;98523.60;;;7.12
65823;BMP180;52585;47.566;19.056;2023-03-11T08:03:51;98527.40;;;7.10
65823;BMP180;52585;47.566;19.056;2023-03-11T08:06:28;98547.60;;;7.10
65823;BMP180;52585;47.566;19.056;2023-03-11T08:09:01;98543.20;;;7.10
65823;BMP180;52585;47.566;19.056;2023-03-11T08:11:29;98575.20;;;7.10
65823;BMP180;52585;47.566;19.056;2023-03-11T08:13:55;98579.80;;;7.10
65823;BMP180;52585;47.566;19.056;2023-03-11T08:16:22;98599.80;;;7.10
65823;BMP180;52585;47.566;19.056;2023-03-11T08:18:50;98561.20;;;7.10
65823;BMP180;52585;47.566;19.056;2023-03-11T08:21:25;98563.40;;;7.10
65823;BMP180;52585;47.566;19.056;2023-03-11T08:23:57;98574.20;;;7.10
65823;BMP180;52585;47.566;19.056;2023-03-11T08:26:23;98584.00;;;7.10
65823;BMP180;52585;47.566;19.056;2023-03-11T08:28:49;98597.80;;;7.10
65823;BMP180;52585;47.566;19.056;2023-03-11T08:31:22;98595.60;;;7.10
65823;BMP180;52585;47.566;19.056;2023-03-11T08:33:51;98616.20;;;7.10
65823;BMP180;52585;47.566;19.056;2023-03-11T08:36:18;98646.60;;;7.00
65823;BMP180;52585;47.566;19.056;2023-03-11T08:38:45;98631.60;;;7.00
65823;BMP180;52585;47.566;19.056;2023-03-11T08:41:11;98641.60;;;7.00
65823;BMP180;52585;47.566;19.056;2023-03-11T08:43:37;98652.40;;;7.00
65823;BMP180;52585;47.566;19.056;2023-03-11T08:46:05;98632.80;;;7.02
65823;BMP180;52585;47.566;19.056;2023-03-11T08:48:32;98624.40;;;7.10
65823;BMP180;52585;47.566;19.056;2023-03-11T08:50:58;98618.80;;;7.10
65823;BMP180;52585;47.566;19.056;2023-03-11T08:53:24;98621.00;;;7.14
65823;BMP180;52585;47.566;19.056;2023-03-11T08:55:51;98608.60;;;7.20
65823;BMP180;52585;47.566;19.056;2023-03-11T08:58:18;98606.60;;;7.20
65823;BMP180;52585;47.566;19.056;2023-03-11T09:00:45;98589.80;;;7.20
65823;BMP180;52585;47.566;19.056;2023-03-11T09:03:11;98597.40;;;7.20
65823;BMP180;52585;47.566;19.056;2023-03-11T09:05:38;98596.80;;;7.20
65823;BMP180;52585;47.566;19.056;2023-03-11T09:08:04;98601.20;;;7.20
65823;BMP180;52585;47.566;19.056;2023-03-11T09:10:30;98589.80;;;7.20
65823;BMP180;52585;47.566;19.056;2023-03-11T09:12:55;98597.20;;;7.20
65823;BMP180;52585;47.566;19.056;2023-03-11T09:15:21;98603.00;;;7.20
65823;BMP180;52585;47.566;19.056;2023-03-11T09:17:46;98601.00;;;7.20
65823;BMP180;52585;47.566;19.056;2023-03-11T09:20:13;98599.20;;;7.20
65823;BMP180;52585;47.566;19.056;2023-03-11T09:22:40;98607.20;;;7.14
65823;BMP180;52585;47.566;19.056;2023-03-11T09:25:07;98607.20;;;7.10
65823;BMP180;52585;47.566;19.056;2023-03-11T09:27:32;98615.40;;;7.10
65823;BMP180;52585;47.566;19.056;2023-03-11T09:29:58;98613.60;;;7.10
65823;BMP180;52585;47.566;19.056;2023-03-11T09:32:24;98617.80;;;7.10
65823;BMP180;52585;47.566;19.056;2023-03-11T09:34:49;98628.20;;;7.10
65823;BMP180;52585;47.566;19.056;2023-03-11T09:37:15;98629.80;;;7.10
65823;BMP180;52585;47.566;19.056;2023-03-11T09:39:41;98628.60;;;7.10
65823;BMP180;52585;47.566;19.056;2023-03-11T09:45:16;98632.40;;;7.10
65823;BMP180;52585;47.566;19.056;2023-03-11T09:50:49;98645.20;;;7.06
65823;BMP180;52585;47.566;19.056;2023-03-11T09:53:58;98645.60;;;7.00
65823;BMP180;52585;47.566;19.056;2023-03-11T09:56:19;98644.80;;;7.00
65823;BMP180;52585;47.566;19.056;2023-03-11T09:58:50;98635.20;;;7.00
65823;BMP180;52585;47.566;19.056;2023-03-11T10:01:48;98645.20;;;7.00
65823;BMP180;52585;47.566;19.056;2023-03-11T10:04:26;98647.60;;;7.00
65823;BMP180;52585;47.566;19.056;2023-03-11T10:06:53;98646.20;;;6.92
65823;BMP180;52585;47.566;19.056;2023-03-11T10:10:03;98645.60;;;6.90
65823;BMP180;52585;47.566;19.056;2023-03-11T10:21:52;98675.40;;;6.80
65823;BMP180;52585;47.566;19.056;2023-03-11T10:27:09;98677.20;;;6.80
65823;BMP180;52585;47.566;19.056;2023-03-11T10:29:51;98678.20;;;6.80
65823;BMP180;52585;47.566;19.056;2023-03-11T10:35:22;98682.00;;;6.86
65823;BMP180;52585;47.566;19.056;2023-03-11T10:37:59;98688.20;;;6.90
65823;BMP180;52585;47.566;19.056;2023-03-11T10:40:33;98708.00;;;7.00
65823;BMP180;52585;47.566;19.056;2023-03-11T10:43:12;98711.40;;;7.10
65823;BMP180;52585;47.566;19.056;2023-03-11T10:45:42;98699.80;;;7.10
65823;BMP180;52585;47.566;19.056;2023-03-11T10:48:18;98705.80;;;7.20
65823;BMP180;52585;47.566;19.056;2023-03-11T10:53:18;98714.00;;;7.30
65823;BMP180;52585;47.566;19.056;2023-03-11T10:55:53;98720.00;;;7.40
65823;BMP180;52585;47.566;19.056;2023-03-11T10:58:26;98722.00;;;7.40
65823;BMP180;52585;47.566;19.056;2023-03-11T11:01:15;98714.60;;;7.40
65823;BMP180;52585;47.566;19.056;2023-03-11T11:03:48;98705.40;;;7.40
65823;BMP180;52585;47.566;19.056;2023-03-11T11:06:30;98716.40;;;7.50
65823;BMP180;52585;47.566;19.056;2023-03-11T11:09:15;98726.00;;;7.56
65823;BMP180;52585;47.566;19.056;2023-03-11T11:11:59;98725.40;;;7.60
65823;BMP180;52585;47.566;19.056;2023-03-11T11:14:45;98718.00;;;7.66
65823;BMP180;52585;47.566;19.056;2023-03-11T11:17:32;98721.60;;;7.70
65823;BMP180;52585;47.566;19.056;2023-03-11T11:20:01;98717.20;;;7.70
65823;BMP180;52585;47.566;19.056;2023-03-11T11:25:41;98737.80;;;7.80
65823;BMP180;52585;47.566;19.056;2023-03-11T11:28:18;98742.60;;;7.90
65823;BMP180;52585;47.566;19.056;2023-03-11T11:31:02;98737.60;;;7.90
65823;BMP180;52585;47.566;19.056;2023-03-11T11:36:01;98738.00;;;8.00
65823;BMP180;52585;47.566;19.056;2023-03-11T11:38:29;98748.60;;;8.00
65823;BMP180;52585;47.566;19.056;2023-03-11T11:41:00;98734.80;;;8.00
65823;BMP180;52585;47.566;19.056;2023-03-11T11:43:52;98747.60;;;8.00
65823;BMP180;52585;47.566;19.056;2023-03-11T11:52:11;98741.60;;;8.00
65823;BMP180;52585;47.566;19.056;2023-03-11T11:54:47;98744.00;;;8.00
65823;BMP180;52585;47.566;19.056;2023-03-11T11:57:18;98740.60;;;8.00
65823;BMP180;52585;47.566;19.056;2023-03-11T11:59:46;98752.60;;;8.00
65823;BMP180;52585;47.566;19.056;2023-03-11T12:05:29;98749.40;;;8.00
65823;BMP180;52585;47.566;19.056;2023-03-11T12:11:18;98754.80;;;7.90
65823;BMP180;52585;47.566;19.056;2023-03-11T12:14:10;98744.60;;;7.90
65823;BMP180;52585;47.566;19.056;2023-03-11T12:16:42;98746.40;;;7.98
65823;BMP180;52585;47.566;19.056;2023-03-11T12:19:16;98744.80;;;8.00
65823;BMP180;52585;47.566;19.056;2023-03-11T12:22:28;98750.80;;;8.00
65823;BMP180;52585;47.566;19.056;2023-03-11T12:25:51;98748.80;;;8.08
65823;BMP180;52585;47.566;19.056;2023-03-11T12:28:23;98759.20;;;8.06
65823;BMP180;52585;47.566;19.056;2023-03-11T12:31:01;98747.60;;;8.10
65823;BMP180;52585;47.566;19.056;2023-03-11T12:36:35;98760.40;;;8.18
65823;BMP180;52585;47.566;19.056;2023-03-11T12:39:05;98758.00;;;8.20
65823;BMP180;52585;47.566;19.056;2023-03-11T12:41:39;98756.80;;;8.20
65823;BMP180;52585;47.566;19.056;2023-03-11T12:44:26;98765.60;;;8.20
65823;BMP180;52585;47.566;19.056;2023-03-11T12:49:35;98768.80;;;8.26
65823;BMP180;52585;47.566;19.056;2023-03-11T12:55:33;98795.60;;;8.40
65823;BMP180;52585;47.566;19.056;2023-03-11T12:57:58;98787.80;;;8.40
65823;BMP180;52585;47.566;19.056;2023-03-11T13:04:11;98811.80;;;8.30
65823;BMP180;52585;47.566;19.056;2023-03-11T13:09:31;98842.80;;;8.20
65823;BMP180;52585;47.566;19.056;2023-03-11T13:11:57;98832.60;;;8.20
65823;BMP180;52585;47.566;19.056;2023-03-11T13:14:30;98855.60;;;8.20
65823;BMP180;52585;47.566;19.056;2023-03-11T13:17:27;98840.20;;;8.14
65823;BMP180;52585;47.566;19.056;2023-03-11T13:19:58;98857.60;;;8.10
65823;BMP180;52585;47.566;19.056;2023-03-11T13:25:42;98874.00;;;8.10
65823;BMP180;52585;47.566;19.056;2023-03-11T13:31:42;98877.80;;;8.00
65823;BMP180;52585;47.566;19.056;2023-03-11T13:38:08;98897.60;;;7.90
65823;BMP180;52585;47.566;19.056;2023-03-11T13:40:39;98907.00;;;7.90
65823;BMP180;52585;47.566;19.056;2023-03-11T13:43:21;98902.60;;;7.90
65823;BMP180;52585;47.566;19.056;2023-03-11T13:46:05;98909.80;;;7.90
65823;BMP180;52585;47.566;19.056;2023-03-11T13:48:45;98906.20;;;7.82
65823;BMP180;52585;47.566;19.056;2023-03-11T13:51:37;98900.60;;;7.80
65823;BMP180;52585;47.566;19.056;2023-03-11T13:57:01;98898.00;;;7.80
65823;BMP180;52585;47.566;19.056;2023-03-11T13:59:32;98912.00;;;7.74
65823;BMP180;52585;47.566;19.056;2023-03-11T14:04:35;98925.20;;;7.70
65823;BMP180;52585;47.566;19.056;2023-03-11T14:07:26;98935.40;;;7.70
65823;BMP180;52585;47.566;19.056;2023-03-11T14:10:31;98950.20;;;7.66
65823;BMP180;52585;47.566;19.056;2023-03-11T14:13:15;98947.80;;;7.60
65823;BMP180;52585;47.566;19.056;2023-03-11T14:15:50;98950.00;;;7.60
65823;BMP180;52585;47.566;19.056;2023-03-11T14:21:21;98960.80;;;7.58
65823;BMP180;52585;47.566;19.056;2023-03-11T14:23:50;98967.40;;;7.50
65823;BMP180;52585;47.566;19.056;2023-03-11T14:26:24;98962.20;;;7.50
65823;BMP180;52585;47.566;19.056;2023-03-11T14:29:15;98982.40;;;7.50
65823;BMP180;52585;47.566;19.056;2023-03-11T14:31:44;98989.40;;;7.40
65823;BMP180;52585;47.566;19.056;2023-03-11T14:34:18;98990.40;;;7.40
65823;BMP180;52585;47.566;19.056;2023-03-11T14:36:46;98973.00;;;7.40
65823;BMP180;52585;47.566;19.056;2023-03-11T14:39:35;98989.80;;;7.32
65823;BMP180;52585;47.566;19.056;2023-03-11T14:42:33;98981.20;;;7.30
65823;BMP180;52585;47.566;19.056;2023-03-11T14:45:12;98985.60;;;7.24
65823;BMP180;52585;47.566;19.056;2023-03-11T14:48:02;98988.80;;;7.20
65823;BMP180;52585;47.566;19.056;2023-03-11T14:50:33;98980.80;;;7.28
65823;BMP180;52585;47.566;19.056;2023-03-11T15:00:57;98987.80;;;7.20
65823;BMP180;52585;47.566;19.056;2023-03-11T15:03:34;99000.40;;;7.20
65823;BMP180;52585;47.566;19.056;2023-03-11T15:06:18;99005.60;;;7.12
65823;BMP180;52585;47.566;19.056;2023-03-11T15:08:57;99014.20;;;7.10
65823;BMP180;52585;47.566;19.056;2023-03-11T15:11:26;99024.20;;;7.10
65823;BMP180;52585;47.566;19.056;2023-03-11T15:14:12;99034.20;;;7.10
65823;BMP180;52585;47.566;19.056;2023-03-11T15:16:40;99037.00;;;7.10
65823;BMP180;52585;47.566;19.056;2023-03-11T15:22:20;99060.20;;;7.20
65823;BMP180;52585;47.566;19.056;2023-03-11T15:24:54;99065.40;;;7.20
65823;BMP180;52585;47.566;19.056;2023-03-11T15:27:49;99080.80;;;7.20
65823;BMP180;52585;47.566;19.056;2023-03-11T15:30:29;99084.00;;;7.22
65823;BMP180;52585;47.566;19.056;2023-03-11T15:32:56;99084.80;;;7.30
65823;BMP180;52585;47.566;19.056;2023-03-11T15:35:30;99090.00;;;7.30
65823;BMP180;52585;47.566;19.056;2023-03-11T15:38:24;99097.40;;;7.30
65823;BMP180;52585;47.566;19.056;2023-03-11T15:40:56;99092.60;;;7.30
65823;BMP180;52585;47.566;19.056;2023-03-11T15:43:52;99100.20;;;7.30
65823;BMP180;52585;47.566;19.056;2023-03-11T15:46:19;99098.80;;;7.30
65823;BMP180;52585;47.566;19.056;2023-03-11T15:48:45;99095.00;;;7.30
65823;BMP180;52585;47.566;19.056;2023-03-11T15:51:19;99101.80;;;7.20
65823;BMP180;52585;47.566;19.056;2023-03-11T15:53:44;99095.40;;;7.20
65823;BMP180;52585;47.566;19.056;2023-03-11T15:56:21;99098.20;;;7.10
65823;BMP180;52585;47.566;19.056;2023-03-11T15:58:48;99098.60;;;7.10
65823;BMP180;52585;47.566;19.056;2023-03-11T16:01:15;99092.20;;;7.10
65823;BMP180;52585;47.566;19.056;2023-03-11T16:03:42;99093.40;;;7.10